sensor_id;sensor_type;location;lat;lon;timestamp;temperature;humidity
43520;DHT22;46848;51.980;5.918;2023-05-27T00:00:07;12.60;63.30
43520;DHT22;46848;51.980;5.918;2023-05-27T00:02:34;12.60;63.30
43520;DHT22;46848;51.980;5.918;2023-05-27T00:05:00;12.60;63.70
43520;DHT22;46848;51.980;5.918;2023-05-27T00:07:26;12.60;64.00
43520;DHT22;46848;51.980;5.918;2023-05-27T00:09:51;12.40;64.70
43520;DHT22;46848;51.980;5.918;2023-05-27T00:12:17;12.50;64.10
43520;DHT22;46848;51.980;5.918;2023-05-27T00:14:43;12.50;63.90
43520;DHT22;46848;51.980;5.918;2023-05-27T00:17:09;12.50;64.10
43520;DHT22;46848;51.980;5.918;2023-05-27T00:19:35;12.50;64.20
43520;DHT22;46848;51.980;5.918;2023-05-27T00:22:01;12.50;64.30
43520;DHT22;46848;51.980;5.918;2023-05-27T00:24:26;12.50;64.50
43520;DHT22;46848;51.980;5.918;2023-05-27T00:26:52;12.40;64.90
43520;DHT22;46848;51.980;5.918;2023-05-27T00:29:18;12.30;65.10
43520;DHT22;46848;51.980;5.918;2023-05-27T00:31:44;12.30;65.10
43520;DHT22;46848;51.980;5.918;2023-05-27T00:34:10;12.20;65.20
43520;DHT22;46848;51.980;5.918;2023-05-27T00:36:36;12.20;65.90
43520;DHT22;46848;51.980;5.918;2023-05-27T00:39:02;12.10;65.80
43520;DHT22;46848;51.980;5.918;2023-05-27T00:41:28;12.10;65.90
43520;DHT22;46848;51.980;5.918;2023-05-27T00:43:55;12.00;66.20
43520;DHT22;46848;51.980;5.918;2023-05-27T00:46:21;12.00;66.20
43520;DHT22;46848;51.980;5.918;2023-05-27T00:48:48;12.00;66.40
43520;DHT22;46848;51.980;5.918;2023-05-27T00:51:14;11.90;66.30
43520;DHT22;46848;51.980;5.918;2023-05-27T00:53:42;11.90;66.70
43520;DHT22;46848;51.980;5.918;2023-05-27T00:56:09;11.90;67.20
43520;DHT22;46848;51.980;5.918;2023-05-27T00:58:36;11.80;67.30
43520;DHT22;46848;51.980;5.918;2023-05-27T01:01:05;11.80;67.60
43520;DHT22;46848;51.980;5.918;2023-05-27T01:03:32;11.70;67.70
43520;DHT22;46848;51.980;5.918;2023-05-27T01:06:21;11.70;68.00
43520;DHT22;46848;51.980;5.918;2023-05-27T01:11:55;11.60;67.90
43520;DHT22;46848;51.980;5.918;2023-05-27T01:14:23;11.70;67.70
43520;DHT22;46848;51.980;5.918;2023-05-27T01:16:51;11.70;67.70
43520;DHT22;46848;51.980;5.918;2023-05-27T01:19:28;11.70;67.80
43520;DHT22;46848;51.980;5.918;2023-05-27T01:21:59;11.70;67.70
43520;DHT22;46848;51.980;5.918;2023-05-27T01:24:26;11.70;67.40
43520;DHT22;46848;51.980;5.918;2023-05-27T01:26:52;11.70;67.40
43520;DHT22;46848;51.980;5.918;2023-05-27T01:29:19;11.70;67.70
43520;DHT22;46848;51.980;5.918;2023-05-27T01:32:12;11.80;67.70
43520;DHT22;46848;51.980;5.918;2023-05-27T01:37:25;11.80;67.70
43520;DHT22;46848;51.980;5.918;2023-05-27T01:39:52;11.70;67.90
43520;DHT22;46848;51.980;5.918;2023-05-27T01:42:19;11.70;68.10
43520;DHT22;46848;51.980;5.918;2023-05-27T01:44:46;11.70;67.50
43520;DHT22;46848;51.980;5.918;2023-05-27T01:47:12;11.70;67.50
43520;DHT22;46848;51.980;5.918;2023-05-27T01:49:37;11.70;67.60
43520;DHT22;46848;51.980;5.918;2023-05-27T01:52:03;11.70;68.10
43520;DHT22;46848;51.980;5.918;2023-05-27T01:54:29;11.70;68.10
43520;DHT22;46848;51.980;5.918;2023-05-27T01:56:54;11.60;68.20
43520;DHT22;46848;51.980;5.918;2023-05-27T01:59:20;11.60;68.20
43520;DHT22;46848;51.980;5.918;2023-05-27T02:01:46;11.70;68.20
43520;DHT22;46848;51.980;5.918;2023-05-27T02:04:12;11.70;68.00
43520;DHT22;46848;51.980;5.918;2023-05-27T02:06:38;11.70;67.80
43520;DHT22;46848;51.980;5.918;2023-05-27T02:09:03;11.70;67.90
43520;DHT22;46848;51.980;5.918;2023-05-27T02:11:29;11.70;67.80
43520;DHT22;46848;51.980;5.918;2023-05-27T02:13:55;11.70;68.00
43520;DHT22;46848;51.980;5.918;2023-05-27T02:16:24;11.70;68.10
43520;DHT22;46848;51.980;5.918;2023-05-27T02:18:50;11.70;68.00
43520;DHT22;46848;51.980;5.918;2023-05-27T02:21:16;11.70;68.00
43520;DHT22;46848;51.980;5.918;2023-05-27T02:23:42;11.70;67.90
43520;DHT22;46848;51.980;5.918;2023-05-27T02:26:08;11.80;68.00
43520;DHT22;46848;51.980;5.918;2023-05-27T02:28:33;11.70;67.80
43520;DHT22;46848;51.980;5.918;2023-05-27T02:30:59;11.80;67.90
43520;DHT22;46848;51.980;5.918;2023-05-27T02:33:25;11.80;68.00
43520;DHT22;46848;51.980;5.918;2023-05-27T02:35:51;11.70;68.00
43520;DHT22;46848;51.980;5.918;2023-05-27T02:38:17;11.70;68.00
43520;DHT22;46848;51.980;5.918;2023-05-27T02:40:43;11.70;68.10
43520;DHT22;46848;51.980;5.918;2023-05-27T02:43:09;11.70;67.80
43520;DHT22;46848;51.980;5.918;2023-05-27T02:45:36;11.70;67.90
43520;DHT22;46848;51.980;5.918;2023-05-27T02:48:02;11.70;68.00
43520;DHT22;46848;51.980;5.918;2023-05-27T02:50:28;11.70;67.90
43520;DHT22;46848;51.980;5.918;2023-05-27T02:52:53;11.70;68.20
43520;DHT22;46848;51.980;5.918;2023-05-27T02:55:19;11.60;68.30
43520;DHT22;46848;51.980;5.918;2023-05-27T02:57:44;11.60;68.20
43520;DHT22;46848;51.980;5.918;2023-05-27T03:00:11;11.60;68.40
43520;DHT22;46848;51.980;5.918;2023-05-27T03:02:37;11.50;68.60
43520;DHT22;46848;51.980;5.918;2023-05-27T03:05:04;11.50;68.40
43520;DHT22;46848;51.980;5.918;2023-05-27T03:07:29;11.50;68.30
43520;DHT22;46848;51.980;5.918;2023-05-27T03:09:56;11.50;68.10
43520;DHT22;46848;51.980;5.918;2023-05-27T03:12:23;11.60;68.00
43520;DHT22;46848;51.980;5.918;2023-05-27T03:14:49;11.60;68.10
43520;DHT22;46848;51.980;5.918;2023-05-27T03:17:15;11.50;68.30
43520;DHT22;46848;51.980;5.918;2023-05-27T03:19:41;11.50;68.60
43520;DHT22;46848;51.980;5.918;2023-05-27T03:22:08;11.50;68.50
43520;DHT22;46848;51.980;5.918;2023-05-27T03:24:34;11.40;68.70
43520;DHT22;46848;51.980;5.918;2023-05-27T03:27:01;11.50;68.50
43520;DHT22;46848;51.980;5.918;2023-05-27T03:29:27;11.40;68.60
43520;DHT22;46848;51.980;5.918;2023-05-27T03:31:52;11.40;68.80
43520;DHT22;46848;51.980;5.918;2023-05-27T03:34:18;11.40;69.10
43520;DHT22;46848;51.980;5.918;2023-05-27T03:36:43;11.40;69.10
43520;DHT22;46848;51.980;5.918;2023-05-27T03:39:14;11.30;68.70
43520;DHT22;46848;51.980;5.918;2023-05-27T03:41:40;11.40;69.20
43520;DHT22;46848;51.980;5.918;2023-05-27T03:44:06;11.30;69.20
43520;DHT22;46848;51.980;5.918;2023-05-27T03:46:32;11.30;69.10
43520;DHT22;46848;51.980;5.918;2023-05-27T03:48:58;11.30;69.20
43520;DHT22;46848;51.980;5.918;2023-05-27T03:51:23;11.30;69.20
43520;DHT22;46848;51.980;5.918;2023-05-27T03:53:50;11.30;69.20
43520;DHT22;46848;51.980;5.918;2023-05-27T03:56:15;11.40;69.00
43520;DHT22;46848;51.980;5.918;2023-05-27T03:58:41;11.40;69.30
43520;DHT22;46848;51.980;5.918;2023-05-27T04:01:07;11.40;69.20
43520;DHT22;46848;51.980;5.918;2023-05-27T04:03:33;11.40;69.50
43520;DHT22;46848;51.980;5.918;2023-05-27T04:05:59;11.40;69.40
43520;DHT22;46848;51.980;5.918;2023-05-27T04:08:25;11.30;70.20
43520;DHT22;46848;51.980;5.918;2023-05-27T04:10:56;11.30;70.00
43520;DHT22;46848;51.980;5.918;2023-05-27T04:13:22;11.30;70.20
43520;DHT22;46848;51.980;5.918;2023-05-27T04:15:48;11.20;70.20
43520;DHT22;46848;51.980;5.918;2023-05-27T04:18:14;11.20;70.50
43520;DHT22;46848;51.980;5.918;2023-05-27T04:20:40;11.20;70.50
43520;DHT22;46848;51.980;5.918;2023-05-27T04:23:08;11.20;70.50
43520;DHT22;46848;51.980;5.918;2023-05-27T04:25:34;11.20;70.60
43520;DHT22;46848;51.980;5.918;2023-05-27T04:28:01;11.20;71.00
43520;DHT22;46848;51.980;5.918;2023-05-27T04:30:30;11.20;71.20
43520;DHT22;46848;51.980;5.918;2023-05-27T04:32:56;11.10;71.10
43520;DHT22;46848;51.980;5.918;2023-05-27T04:35:22;11.10;72.00
43520;DHT22;46848;51.980;5.918;2023-05-27T04:37:48;11.10;72.60
43520;DHT22;46848;51.980;5.918;2023-05-27T04:40:14;11.00;72.50
43520;DHT22;46848;51.980;5.918;2023-05-27T04:42:40;11.00;72.30
43520;DHT22;46848;51.980;5.918;2023-05-27T04:45:06;11.10;72.20
43520;DHT22;46848;51.980;5.918;2023-05-27T04:47:33;11.10;72.40
43520;DHT22;46848;51.980;5.918;2023-05-27T04:50:05;11.10;72.10
43520;DHT22;46848;51.980;5.918;2023-05-27T04:52:31;11.20;71.90
43520;DHT22;46848;51.980;5.918;2023-05-27T04:55:05;11.20;72.10
43520;DHT22;46848;51.980;5.918;2023-05-27T04:57:32;11.20;71.70
43520;DHT22;46848;51.980;5.918;2023-05-27T04:59:58;11.30;71.90
43520;DHT22;46848;51.980;5.918;2023-05-27T05:02:39;11.30;72.10
43520;DHT22;46848;51.980;5.918;2023-05-27T05:05:09;11.30;72.20
43520;DHT22;46848;51.980;5.918;2023-05-27T05:07:38;11.30;72.70
43520;DHT22;46848;51.980;5.918;2023-05-27T05:10:08;11.30;73.10
43520;DHT22;46848;51.980;5.918;2023-05-27T05:12:34;11.30;72.90
43520;DHT22;46848;51.980;5.918;2023-05-27T05:15:01;11.40;72.70
43520;DHT22;46848;51.980;5.918;2023-05-27T05:17:27;11.50;72.50
43520;DHT22;46848;51.980;5.918;2023-05-27T05:19:53;11.50;72.60
43520;DHT22;46848;51.980;5.918;2023-05-27T05:22:19;11.70;72.50
43520;DHT22;46848;51.980;5.918;2023-05-27T05:24:46;11.70;72.50
43520;DHT22;46848;51.980;5.918;2023-05-27T05:27:11;11.70;72.60
43520;DHT22;46848;51.980;5.918;2023-05-27T05:29:37;11.80;72.70
43520;DHT22;46848;51.980;5.918;2023-05-27T05:32:03;11.80;72.80
43520;DHT22;46848;51.980;5.918;2023-05-27T05:34:29;11.90;72.90
43520;DHT22;46848;51.980;5.918;2023-05-27T05:36:55;11.90;72.90
43520;DHT22;46848;51.980;5.918;2023-05-27T05:39:22;11.90;72.60
43520;DHT22;46848;51.980;5.918;2023-05-27T05:41:48;12.00;72.80
43520;DHT22;46848;51.980;5.918;2023-05-27T05:44:15;12.10;72.70
43520;DHT22;46848;51.980;5.918;2023-05-27T05:46:41;12.10;73.20
43520;DHT22;46848;51.980;5.918;2023-05-27T05:49:06;12.10;73.40
43520;DHT22;46848;51.980;5.918;2023-05-27T05:51:32;12.20;72.90
43520;DHT22;46848;51.980;5.918;2023-05-27T05:53:58;12.40;72.80
43520;DHT22;46848;51.980;5.918;2023-05-27T05:56:24;12.50;72.40
43520;DHT22;46848;51.980;5.918;2023-05-27T05:58:51;12.60;72.50
43520;DHT22;46848;51.980;5.918;2023-05-27T06:01:17;12.60;72.40
43520;DHT22;46848;51.980;5.918;2023-05-27T06:03:43;12.80;72.10
43520;DHT22;46848;51.980;5.918;2023-05-27T06:06:09;13.00;71.60
43520;DHT22;46848;51.980;5.918;2023-05-27T06:08:35;13.10;71.30
43520;DHT22;46848;51.980;5.918;2023-05-27T06:11:01;13.20;71.20
43520;DHT22;46848;51.980;5.918;2023-05-27T06:13:26;13.20;71.30
43520;DHT22;46848;51.980;5.918;2023-05-27T06:15:52;13.20;71.30
43520;DHT22;46848;51.980;5.918;2023-05-27T06:18:36;13.20;71.20
43520;DHT22;46848;51.980;5.918;2023-05-27T06:21:01;13.40;71.00
43520;DHT22;46848;51.980;5.918;2023-05-27T06:23:27;13.50;70.60
43520;DHT22;46848;51.980;5.918;2023-05-27T06:25:53;13.60;70.30
43520;DHT22;46848;51.980;5.918;2023-05-27T06:28:18;13.70;69.90
43520;DHT22;46848;51.980;5.918;2023-05-27T06:30:44;13.80;69.70
43520;DHT22;46848;51.980;5.918;2023-05-27T06:33:10;14.00;69.10
43520;DHT22;46848;51.980;5.918;2023-05-27T06:35:35;14.10;69.00
43520;DHT22;46848;51.980;5.918;2023-05-27T06:38:01;14.30;68.50
43520;DHT22;46848;51.980;5.918;2023-05-27T06:40:27;14.30;67.90
43520;DHT22;46848;51.980;5.918;2023-05-27T06:42:53;14.40;67.70
43520;DHT22;46848;51.980;5.918;2023-05-27T06:45:19;14.50;67.70
43520;DHT22;46848;51.980;5.918;2023-05-27T06:47:45;14.70;67.40
43520;DHT22;46848;51.980;5.918;2023-05-27T06:50:11;14.80;67.00
43520;DHT22;46848;51.980;5.918;2023-05-27T06:52:36;15.10;66.60
43520;DHT22;46848;51.980;5.918;2023-05-27T06:55:02;15.30;65.90
43520;DHT22;46848;51.980;5.918;2023-05-27T06:57:27;15.40;65.60
43520;DHT22;46848;51.980;5.918;2023-05-27T06:59:54;15.60;65.00
43520;DHT22;46848;51.980;5.918;2023-05-27T07:02:20;15.70;64.80
43520;DHT22;46848;51.980;5.918;2023-05-27T07:04:46;15.90;64.20
43520;DHT22;46848;51.980;5.918;2023-05-27T07:07:11;16.00;64.00
43520;DHT22;46848;51.980;5.918;2023-05-27T07:09:37;16.20;63.40
43520;DHT22;46848;51.980;5.918;2023-05-27T07:12:04;16.20;62.80
43520;DHT22;46848;51.980;5.918;2023-05-27T07:14:31;16.40;62.90
43520;DHT22;46848;51.980;5.918;2023-05-27T07:16:57;16.50;62.60
43520;DHT22;46848;51.980;5.918;2023-05-27T07:19:23;16.70;62.40
43520;DHT22;46848;51.980;5.918;2023-05-27T07:21:48;16.80;60.90
43520;DHT22;46848;51.980;5.918;2023-05-27T07:24:14;17.00;60.90
43520;DHT22;46848;51.980;5.918;2023-05-27T07:26:39;16.90;60.50
43520;DHT22;46848;51.980;5.918;2023-05-27T07:29:06;17.10;60.70
43520;DHT22;46848;51.980;5.918;2023-05-27T07:31:32;17.20;59.90
43520;DHT22;46848;51.980;5.918;2023-05-27T07:33:58;17.30;59.60
43520;DHT22;46848;51.980;5.918;2023-05-27T07:36:23;17.50;59.50
43520;DHT22;46848;51.980;5.918;2023-05-27T07:38:51;17.60;59.00
43520;DHT22;46848;51.980;5.918;2023-05-27T07:41:17;17.80;58.80
43520;DHT22;46848;51.980;5.918;2023-05-27T07:43:43;17.90;58.20
43520;DHT22;46848;51.980;5.918;2023-05-27T07:46:09;18.00;57.90
43520;DHT22;46848;51.980;5.918;2023-05-27T07:48:35;18.10;57.50
43520;DHT22;46848;51.980;5.918;2023-05-27T07:51:00;18.20;57.70
43520;DHT22;46848;51.980;5.918;2023-05-27T07:53:26;18.30;57.00
43520;DHT22;46848;51.980;5.918;2023-05-27T07:55:51;18.40;57.10
43520;DHT22;46848;51.980;5.918;2023-05-27T07:58:17;18.60;57.10
43520;DHT22;46848;51.980;5.918;2023-05-27T08:00:44;18.80;56.40
43520;DHT22;46848;51.980;5.918;2023-05-27T08:03:10;19.00;56.10
43520;DHT22;46848;51.980;5.918;2023-05-27T08:05:36;19.20;55.80
43520;DHT22;46848;51.980;5.918;2023-05-27T08:08:01;19.20;54.30
43520;DHT22;46848;51.980;5.918;2023-05-27T08:10:28;19.20;55.10
43520;DHT22;46848;51.980;5.918;2023-05-27T08:12:54;19.30;55.40
43520;DHT22;46848;51.980;5.918;2023-05-27T08:15:19;19.50;55.10
43520;DHT22;46848;51.980;5.918;2023-05-27T08:17:45;19.60;54.90
43520;DHT22;46848;51.980;5.918;2023-05-27T08:20:11;19.80;54.60
43520;DHT22;46848;51.980;5.918;2023-05-27T08:22:37;19.90;54.60
43520;DHT22;46848;51.980;5.918;2023-05-27T08:25:03;20.20;54.90
43520;DHT22;46848;51.980;5.918;2023-05-27T08:30:08;20.70;53.60
43520;DHT22;46848;51.980;5.918;2023-05-27T08:32:35;20.80;53.40
43520;DHT22;46848;51.980;5.918;2023-05-27T08:35:01;21.10;53.70
43520;DHT22;46848;51.980;5.918;2023-05-27T08:37:26;21.30;52.90
43520;DHT22;46848;51.980;5.918;2023-05-27T08:39:52;21.50;52.10
43520;DHT22;46848;51.980;5.918;2023-05-27T08:42:19;21.60;52.30
43520;DHT22;46848;51.980;5.918;2023-05-27T08:44:46;21.70;52.40
43520;DHT22;46848;51.980;5.918;2023-05-27T08:47:12;21.80;51.70
43520;DHT22;46848;51.980;5.918;2023-05-27T08:49:39;21.90;51.30
43520;DHT22;46848;51.980;5.918;2023-05-27T08:52:19;21.80;51.10
43520;DHT22;46848;51.980;5.918;2023-05-27T08:54:48;21.90;51.00
43520;DHT22;46848;51.980;5.918;2023-05-27T08:57:16;22.00;51.40
43520;DHT22;46848;51.980;5.918;2023-05-27T08:59:43;22.10;51.30
43520;DHT22;46848;51.980;5.918;2023-05-27T09:02:11;22.10;51.20
43520;DHT22;46848;51.980;5.918;2023-05-27T09:04:39;22.20;50.00
43520;DHT22;46848;51.980;5.918;2023-05-27T09:07:05;22.20;50.00
43520;DHT22;46848;51.980;5.918;2023-05-27T09:09:31;22.30;50.60
43520;DHT22;46848;51.980;5.918;2023-05-27T09:12:01;22.40;49.60
43520;DHT22;46848;51.980;5.918;2023-05-27T09:14:33;22.50;48.80
43520;DHT22;46848;51.980;5.918;2023-05-27T09:17:05;22.40;48.60
43520;DHT22;46848;51.980;5.918;2023-05-27T09:19:31;22.20;49.30
43520;DHT22;46848;51.980;5.918;2023-05-27T09:21:57;22.10;50.50
43520;DHT22;46848;51.980;5.918;2023-05-27T09:24:23;22.10;51.10
43520;DHT22;46848;51.980;5.918;2023-05-27T09:26:52;22.20;50.60
43520;DHT22;46848;51.980;5.918;2023-05-27T09:29:19;22.20;49.90
43520;DHT22;46848;51.980;5.918;2023-05-27T09:31:45;22.20;50.00
43520;DHT22;46848;51.980;5.918;2023-05-27T09:34:15;22.30;50.00
43520;DHT22;46848;51.980;5.918;2023-05-27T09:36:45;22.50;50.60
43520;DHT22;46848;51.980;5.918;2023-05-27T09:39:13;22.70;49.40
43520;DHT22;46848;51.980;5.918;2023-05-27T09:41:39;22.50;49.20
43520;DHT22;46848;51.980;5.918;2023-05-27T09:44:05;22.50;50.50
43520;DHT22;46848;51.980;5.918;2023-05-27T09:46:35;22.70;50.00
43520;DHT22;46848;51.980;5.918;2023-05-27T09:49:01;22.80;50.10
43520;DHT22;46848;51.980;5.918;2023-05-27T09:51:28;23.10;50.00
43520;DHT22;46848;51.980;5.918;2023-05-27T09:53:58;23.20;47.80
43520;DHT22;46848;51.980;5.918;2023-05-27T09:56:25;23.30;48.80
43520;DHT22;46848;51.980;5.918;2023-05-27T09:58:56;23.40;48.80
43520;DHT22;46848;51.980;5.918;2023-05-27T10:01:25;23.40;46.80
43520;DHT22;46848;51.980;5.918;2023-05-27T10:03:54;23.30;47.50
43520;DHT22;46848;51.980;5.918;2023-05-27T10:06:20;23.20;46.40
43520;DHT22;46848;51.980;5.918;2023-05-27T10:08:47;23.00;47.50
43520;DHT22;46848;51.980;5.918;2023-05-27T10:11:13;23.10;47.80
43520;DHT22;46848;51.980;5.918;2023-05-27T10:13:39;23.30;48.70
43520;DHT22;46848;51.980;5.918;2023-05-27T10:16:05;23.50;48.90
43520;DHT22;46848;51.980;5.918;2023-05-27T10:18:32;23.80;49.00
43520;DHT22;46848;51.980;5.918;2023-05-27T10:21:03;24.00;47.70
43520;DHT22;46848;51.980;5.918;2023-05-27T10:23:32;24.00;47.70
43520;DHT22;46848;51.980;5.918;2023-05-27T10:26:05;24.10;47.90
43520;DHT22;46848;51.980;5.918;2023-05-27T10:28:36;24.30;48.10
43520;DHT22;46848;51.980;5.918;2023-05-27T10:31:15;24.50;47.30
43520;DHT22;46848;51.980;5.918;2023-05-27T10:33:46;24.70;47.30
43520;DHT22;46848;51.980;5.918;2023-05-27T10:36:13;24.70;47.10
43520;DHT22;46848;51.980;5.918;2023-05-27T10:38:40;24.80;46.60
43520;DHT22;46848;51.980;5.918;2023-05-27T10:41:07;24.80;46.40
43520;DHT22;46848;51.980;5.918;2023-05-27T10:43:34;24.70;45.70
43520;DHT22;46848;51.980;5.918;2023-05-27T10:46:04;24.70;46.10
43520;DHT22;46848;51.980;5.918;2023-05-27T10:48:31;24.70;46.50
43520;DHT22;46848;51.980;5.918;2023-05-27T10:50:57;24.70;46.70
43520;DHT22;46848;51.980;5.918;2023-05-27T10:53:26;24.70;46.00
43520;DHT22;46848;51.980;5.918;2023-05-27T10:55:52;24.80;46.30
43520;DHT22;46848;51.980;5.918;2023-05-27T10:58:18;24.90;46.10
43520;DHT22;46848;51.980;5.918;2023-05-27T11:00:48;24.90;45.70
43520;DHT22;46848;51.980;5.918;2023-05-27T11:03:23;24.80;44.90
43520;DHT22;46848;51.980;5.918;2023-05-27T11:06:01;24.70;45.40
43520;DHT22;46848;51.980;5.918;2023-05-27T11:08:30;24.60;44.50
43520;DHT22;46848;51.980;5.918;2023-05-27T11:11:01;24.50;44.10
43520;DHT22;46848;51.980;5.918;2023-05-27T11:13:41;24.50;44.70
43520;DHT22;46848;51.980;5.918;2023-05-27T11:16:08;24.50;44.70
43520;DHT22;46848;51.980;5.918;2023-05-27T11:21:03;24.70;44.20
43520;DHT22;46848;51.980;5.918;2023-05-27T11:23:41;24.60;44.00
43520;DHT22;46848;51.980;5.918;2023-05-27T11:28:38;24.70;43.70
43520;DHT22;46848;51.980;5.918;2023-05-27T11:31:03;24.80;43.50
43520;DHT22;46848;51.980;5.918;2023-05-27T11:33:33;24.70;41.60
43520;DHT22;46848;51.980;5.918;2023-05-27T11:36:17;24.60;42.40
43520;DHT22;46848;51.980;5.918;2023-05-27T11:38:52;24.70;42.50
43520;DHT22;46848;51.980;5.918;2023-05-27T11:41:25;24.70;42.60
43520;DHT22;46848;51.980;5.918;2023-05-27T11:44:00;24.80;43.10
43520;DHT22;46848;51.980;5.918;2023-05-27T11:46:40;24.90;42.90
43520;DHT22;46848;51.980;5.918;2023-05-27T11:49:08;25.00;42.70
43520;DHT22;46848;51.980;5.918;2023-05-27T11:51:38;25.00;43.00
43520;DHT22;46848;51.980;5.918;2023-05-27T11:54:04;25.10;43.00
43520;DHT22;46848;51.980;5.918;2023-05-27T11:56:30;25.20;42.00
43520;DHT22;46848;51.980;5.918;2023-05-27T11:58:56;25.20;41.70
43520;DHT22;46848;51.980;5.918;2023-05-27T12:01:25;25.20;41.80
43520;DHT22;46848;51.980;5.918;2023-05-27T12:03:53;25.10;41.90
43520;DHT22;46848;51.980;5.918;2023-05-27T12:06:19;25.10;42.20
43520;DHT22;46848;51.980;5.918;2023-05-27T12:08:45;25.10;41.60
43520;DHT22;46848;51.980;5.918;2023-05-27T12:11:10;25.00;40.60
43520;DHT22;46848;51.980;5.918;2023-05-27T12:14:14;25.00;41.30
43520;DHT22;46848;51.980;5.918;2023-05-27T12:16:40;25.00;40.50
43520;DHT22;46848;51.980;5.918;2023-05-27T12:19:07;25.00;40.80
43520;DHT22;46848;51.980;5.918;2023-05-27T12:21:32;24.90;40.50
43520;DHT22;46848;51.980;5.918;2023-05-27T12:23:59;24.90;40.70
43520;DHT22;46848;51.980;5.918;2023-05-27T12:26:24;24.80;39.60
43520;DHT22;46848;51.980;5.918;2023-05-27T12:28:51;24.70;40.00
43520;DHT22;46848;51.980;5.918;2023-05-27T12:31:18;24.70;40.10
43520;DHT22;46848;51.980;5.918;2023-05-27T12:33:44;24.70;40.50
43520;DHT22;46848;51.980;5.918;2023-05-27T12:36:10;24.80;40.40
43520;DHT22;46848;51.980;5.918;2023-05-27T12:38:37;24.90;40.50
43520;DHT22;46848;51.980;5.918;2023-05-27T12:41:03;24.90;40.30
43520;DHT22;46848;51.980;5.918;2023-05-27T12:43:29;24.90;39.60
43520;DHT22;46848;51.980;5.918;2023-05-27T12:45:55;24.80;39.50
43520;DHT22;46848;51.980;5.918;2023-05-27T12:48:21;24.90;39.90
43520;DHT22;46848;51.980;5.918;2023-05-27T12:50:47;24.90;40.20
43520;DHT22;46848;51.980;5.918;2023-05-27T12:53:12;24.90;39.90
43520;DHT22;46848;51.980;5.918;2023-05-27T12:55:38;24.90;40.00
43520;DHT22;46848;51.980;5.918;2023-05-27T12:58:04;24.90;40.20
43520;DHT22;46848;51.980;5.918;2023-05-27T13:00:30;24.90;40.90
43520;DHT22;46848;51.980;5.918;2023-05-27T13:02:58;24.90;40.40
43520;DHT22;46848;51.980;5.918;2023-05-27T13:05:45;24.90;40.40
43520;DHT22;46848;51.980;5.918;2023-05-27T13:08:12;24.80;40.90
43520;DHT22;46848;51.980;5.918;2023-05-27T13:10:38;24.90;40.70
43520;DHT22;46848;51.980;5.918;2023-05-27T13:13:04;24.80;40.90
43520;DHT22;46848;51.980;5.918;2023-05-27T13:15:30;24.70;41.00
43520;DHT22;46848;51.980;5.918;2023-05-27T13:17:56;24.70;41.00
43520;DHT22;46848;51.980;5.918;2023-05-27T13:20:25;24.70;40.80
43520;DHT22;46848;51.980;5.918;2023-05-27T13:22:51;24.70;41.80
43520;DHT22;46848;51.980;5.918;2023-05-27T13:25:18;24.80;41.00
43520;DHT22;46848;51.980;5.918;2023-05-27T13:27:46;24.90;40.90
43520;DHT22;46848;51.980;5.918;2023-05-27T13:30:14;25.00;40.90
43520;DHT22;46848;51.980;5.918;2023-05-27T13:32:41;25.10;40.90
43520;DHT22;46848;51.980;5.918;2023-05-27T13:35:09;25.10;40.30
43520;DHT22;46848;51.980;5.918;2023-05-27T13:37:37;25.00;40.00
43520;DHT22;46848;51.980;5.918;2023-05-27T13:40:03;25.10;40.50
43520;DHT22;46848;51.980;5.918;2023-05-27T13:42:29;25.20;40.40
43520;DHT22;46848;51.980;5.918;2023-05-27T13:44:55;25.30;39.90
43520;DHT22;46848;51.980;5.918;2023-05-27T13:47:20;25.30;39.50
43520;DHT22;46848;51.980;5.918;2023-05-27T13:49:46;25.30;38.70
43520;DHT22;46848;51.980;5.918;2023-05-27T13:52:13;25.30;39.30
43520;DHT22;46848;51.980;5.918;2023-05-27T13:54:40;25.20;39.70
43520;DHT22;46848;51.980;5.918;2023-05-27T13:57:06;25.20;38.90
43520;DHT22;46848;51.980;5.918;2023-05-27T13:59:32;25.10;39.60
43520;DHT22;46848;51.980;5.918;2023-05-27T14:01:58;25.10;39.80
43520;DHT22;46848;51.980;5.918;2023-05-27T14:04:23;25.10;39.90
43520;DHT22;46848;51.980;5.918;2023-05-27T14:06:50;25.00;38.80
43520;DHT22;46848;51.980;5.918;2023-05-27T14:09:18;24.90;39.50
43520;DHT22;46848;51.980;5.918;2023-05-27T14:11:44;24.90;39.40
43520;DHT22;46848;51.980;5.918;2023-05-27T14:14:10;25.00;39.70
43520;DHT22;46848;51.980;5.918;2023-05-27T14:16:36;25.10;39.50
43520;DHT22;46848;51.980;5.918;2023-05-27T14:19:03;25.10;39.30
43520;DHT22;46848;51.980;5.918;2023-05-27T14:21:29;25.20;39.50
43520;DHT22;46848;51.980;5.918;2023-05-27T14:24:01;25.20;39.30
43520;DHT22;46848;51.980;5.918;2023-05-27T14:26:26;25.30;39.30
43520;DHT22;46848;51.980;5.918;2023-05-27T14:28:52;25.30;39.30
43520;DHT22;46848;51.980;5.918;2023-05-27T14:31:19;25.30;39.30
43520;DHT22;46848;51.980;5.918;2023-05-27T14:33:45;25.30;38.90
43520;DHT22;46848;51.980;5.918;2023-05-27T14:36:10;25.30;38.50
43520;DHT22;46848;51.980;5.918;2023-05-27T14:38:36;25.20;38.70
43520;DHT22;46848;51.980;5.918;2023-05-27T14:41:02;25.20;38.90
43520;DHT22;46848;51.980;5.918;2023-05-27T14:43:29;25.20;38.60
43520;DHT22;46848;51.980;5.918;2023-05-27T14:45:55;25.20;38.80
43520;DHT22;46848;51.980;5.918;2023-05-27T14:48:21;25.20;38.60
43520;DHT22;46848;51.980;5.918;2023-05-27T14:50:47;25.20;38.70
43520;DHT22;46848;51.980;5.918;2023-05-27T14:53:13;25.20;38.80
43520;DHT22;46848;51.980;5.918;2023-05-27T14:55:40;25.30;38.90
43520;DHT22;46848;51.980;5.918;2023-05-27T14:58:06;25.20;38.70
43520;DHT22;46848;51.980;5.918;2023-05-27T15:00:32;25.20;39.00
43520;DHT22;46848;51.980;5.918;2023-05-27T15:03:01;25.20;38.30
43520;DHT22;46848;51.980;5.918;2023-05-27T15:05:28;25.10;38.50
43520;DHT22;46848;51.980;5.918;2023-05-27T15:07:57;25.10;37.70
43520;DHT22;46848;51.980;5.918;2023-05-27T15:10:24;25.10;38.10
43520;DHT22;46848;51.980;5.918;2023-05-27T15:12:50;25.20;38.20
43520;DHT22;46848;51.980;5.918;2023-05-27T15:15:20;25.20;38.50
43520;DHT22;46848;51.980;5.918;2023-05-27T15:17:47;25.30;38.70
43520;DHT22;46848;51.980;5.918;2023-05-27T15:20:17;25.30;38.30
43520;DHT22;46848;51.980;5.918;2023-05-27T15:22:44;25.30;37.90
43520;DHT22;46848;51.980;5.918;2023-05-27T15:25:11;25.30;37.90
43520;DHT22;46848;51.980;5.918;2023-05-27T15:27:39;25.30;37.80
43520;DHT22;46848;51.980;5.918;2023-05-27T15:30:07;25.20;37.70
43520;DHT22;46848;51.980;5.918;2023-05-27T15:32:33;25.20;38.10
43520;DHT22;46848;51.980;5.918;2023-05-27T15:35:00;25.30;38.20
43520;DHT22;46848;51.980;5.918;2023-05-27T15:37:28;25.30;38.00
43520;DHT22;46848;51.980;5.918;2023-05-27T15:39:59;25.30;38.10
43520;DHT22;46848;51.980;5.918;2023-05-27T15:42:25;25.20;37.70